Time;durP1;ratioP1;P1;durP2;ratioP2;P2;SDS_P1;SDS_P2;PMS_P1;PMS_P2;Temp;Humidity;BMP_temperature;BMP_pressure;BME280_temperature;BME280_humidity;BME280_pressure;Samples;Min_cycle;Max_cycle;Signal;HPM_P1;HPM_P2
2022/11/07 00:02:15;;;;;;;13.33;6.23;;;;;;;8.53;93.88;100578.97;5009614;28;20455;-69
2022/11/07 00:04:42;;;;;;;15.30;5.70;;;;;;;8.61;94.02;100576.75;5005219;28;20513;-68
2022/11/07 00:07:08;;;;;;;12.37;6.67;;;;;;;8.65;94.44;100562.38;5013149;28;20637;-69
2022/11/07 00:09:34;;;;;;;14.43;5.87;;;;;;;8.62;95.57;100576.44;5011439;28;20990;-68
2022/11/07 00:12:03;;;;;;;13.73;5.80;;;;;;;8.60;96.02;100570.56;5011873;28;20464;-69
2022/11/07 00:14:29;;;;;;;13.70;5.73;;;;;;;8.58;96.52;100570.03;5009247;28;20827;-69
2022/11/07 00:16:56;;;;;;;12.30;5.90;;;;;;;8.53;99.68;100567.38;4999866;28;20472;-69
2022/11/07 00:19:23;;;;;;;14.40;5.60;;;;;;;8.48;100.00;100565.53;5002832;28;20467;-71
2022/11/07 00:21:49;;;;;;;13.40;5.60;;;;;;;8.44;100.00;100558.31;5000509;28;20445;-69
2022/11/07 00:24:17;;;;;;;11.27;5.60;;;;;;;8.45;100.00;100549.13;5011443;28;20463;-69
2022/11/07 00:26:44;;;;;;;13.30;5.87;;;;;;;8.43;100.00;100551.31;5018057;28;20495;-69
2022/11/07 00:29:14;;;;;;;11.63;5.70;;;;;;;8.42;99.09;100553.22;5013475;28;20463;-69
2022/11/07 00:31:40;;;;;;;13.50;5.60;;;;;;;8.38;99.98;100543.28;5015754;28;20464;-69
2022/11/07 00:34:07;;;;;;;11.50;4.90;;;;;;;8.39;99.76;100542.97;5004546;28;20460;-69
2022/11/07 00:36:33;;;;;;;12.23;4.87;;;;;;;8.37;99.43;100541.66;5014258;28;21049;-70
2022/11/07 00:39:00;;;;;;;16.93;6.00;;;;;;;8.34;99.14;100543.81;5009572;28;20510;-69
2022/11/07 00:41:27;;;;;;;12.07;5.23;;;;;;;8.33;99.24;100546.81;5004950;28;20476;-68
2022/11/07 00:43:54;;;;;;;15.00;7.00;;;;;;;8.37;99.56;100545.19;5018106;28;20472;-68
2022/11/07 00:46:22;;;;;;;9.47;4.47;;;;;;;8.42;99.59;100545.13;5018072;28;20843;-68
2022/11/07 00:48:49;;;;;;;13.30;4.87;;;;;;;8.50;100.00;100540.97;5016694;28;20514;-68
2022/11/07 00:51:18;;;;;;;15.33;5.60;;;;;;;8.51;99.59;100548.00;5016699;28;20464;-69
2022/11/07 00:53:45;;;;;;;11.63;6.33;;;;;;;8.53;99.16;100551.19;5017137;28;20448;-67
2022/11/07 00:56:13;;;;;;;9.90;4.90;;;;;;;8.58;98.45;100548.41;5003049;28;20515;-68
2022/11/07 00:58:41;;;;;;;11.07;4.90;;;;;;;8.55;98.48;100549.81;5003022;28;20456;-68
2022/11/07 01:01:08;;;;;;;9.20;4.47;;;;;;;8.61;97.21;100558.66;5010000;28;20440;-70
2022/11/07 01:06:30;;;;;;;10.50;3.90;;;;;;;8.73;96.86;100544.75;4979451;28;20475;-69
2022/11/07 01:08:57;;;;;;;15.73;5.07;;;;;;;8.71;96.71;100547.72;5001977;28;20472;-68
2022/11/07 01:11:25;;;;;;;11.57;4.33;;;;;;;8.75;96.85;100553.34;5014550;28;20456;-68
2022/11/07 01:13:55;;;;;;;10.80;3.70;;;;;;;8.78;95.79;100552.78;5000990;28;20522;-69
2022/11/07 01:16:22;;;;;;;15.17;5.20;;;;;;;8.75;96.55;100539.84;5014535;28;20522;-70
2022/11/07 01:18:49;;;;;;;12.30;4.63;;;;;;;8.79;97.31;100560.59;5016473;28;20471;-69
2022/11/07 01:21:16;;;;;;;11.50;4.87;;;;;;;8.83;96.62;100555.41;5019139;28;20443;-69
2022/11/07 01:23:42;;;;;;;12.63;5.57;;;;;;;8.81;96.52;100547.63;5016088;28;20464;-69
2022/11/07 01:26:11;;;;;;;10.33;4.00;;;;;;;8.81;95.89;100557.63;5014117;28;20467;-69
2022/11/07 01:28:38;;;;;;;11.47;4.50;;;;;;;8.81;95.58;100552.22;5014602;28;20569;-68
2022/11/07 01:31:06;;;;;;;13.23;5.43;;;;;;;8.77;95.02;100556.59;4998993;28;20456;-69
2022/11/07 01:33:34;;;;;;;15.20;5.10;;;;;;;8.79;95.85;100547.09;5010578;28;20463;-69
2022/11/07 01:36:02;;;;;;;12.57;5.03;;;;;;;8.77;95.18;100549.28;5014403;28;20452;-69
2022/11/07 01:38:29;;;;;;;8.30;4.10;;;;;;;8.80;95.61;100548.69;5015578;28;20832;-68
2022/11/07 01:43:46;;;;;;;11.77;4.83;;;;;;;8.83;97.08;100545.41;5010781;28;20459;-68
2022/11/07 01:46:12;;;;;;;8.93;3.60;;;;;;;8.90;96.05;100550.47;5013065;28;20534;-69
2022/11/07 01:48:41;;;;;;;10.00;4.23;;;;;;;8.97;96.10;100550.09;5014149;28;20487;-68
2022/11/07 01:51:09;;;;;;;11.40;5.43;;;;;;;8.98;96.46;100555.19;5014127;28;20456;-70
2022/11/07 01:53:36;;;;;;;10.80;5.17;;;;;;;8.99;96.61;100559.53;5011465;28;20464;-71
2022/11/07 01:56:03;;;;;;;9.23;3.97;;;;;;;9.04;96.28;100556.75;4997970;28;20452;-68
2022/11/07 01:58:30;;;;;;;11.47;5.63;;;;;;;9.06;94.72;100559.16;5005100;28;20483;-68
2022/11/07 02:00:56;;;;;;;11.10;5.03;;;;;;;9.03;96.16;100554.31;5009649;28;20842;-67
2022/11/07 02:03:23;;;;;;;13.20;4.77;;;;;;;9.05;95.32;100562.97;5013490;28;20466;-65
2022/11/07 02:05:54;;;;;;;12.13;5.10;;;;;;;9.04;95.39;100555.97;5008669;28;20460;-68
2022/11/07 02:08:22;;;;;;;12.63;5.53;;;;;;;9.05;94.59;100552.16;5013635;28;20491;-68
2022/11/07 02:10:49;;;;;;;11.63;4.77;;;;;;;9.05;94.41;100554.84;5013849;28;21030;-68
2022/11/07 02:13:25;;;;;;;9.13;4.73;;;;;;;9.05;94.22;100558.34;5014154;28;20472;-69
2022/11/07 02:15:52;;;;;;;12.80;4.53;;;;;;;9.01;94.56;100546.53;5010493;28;20479;-70
2022/11/07 02:18:19;;;;;;;11.43;5.33;;;;;;;9.05;94.03;100547.53;5012694;28;20487;-68
2022/11/07 02:20:46;;;;;;;9.57;4.83;;;;;;;9.04;94.09;100542.44;5013451;28;20463;-68
2022/11/07 02:23:20;;;;;;;9.87;5.07;;;;;;;9.01;95.19;100545.72;5014871;28;20440;-69
2022/11/07 02:25:47;;;;;;;8.83;3.80;;;;;;;9.05;94.92;100542.16;5011409;28;20539;-70
2022/11/07 02:28:15;;;;;;;11.47;4.83;;;;;;;9.00;94.05;100541.41;4996659;28;20551;-69
2022/11/07 02:30:42;;;;;;;9.30;4.00;;;;;;;9.00;94.57;100539.53;5003034;28;20460;-68
2022/11/07 02:33:17;;;;;;;11.83;4.87;;;;;;;9.02;95.04;100541.91;5007135;28;20468;-69
2022/11/07 02:35:46;;;;;;;9.33;4.10;;;;;;;9.03;94.71;100543.53;5008719;28;20526;-74
2022/11/07 02:38:17;;;;;;;13.77;6.07;;;;;;;9.05;94.49;100546.75;5011732;28;20507;-75
2022/11/07 02:40:45;;;;;;;12.70;5.53;;;;;;;9.03;94.46;100532.72;5012841;28;20456;-71
2022/11/07 02:43:16;;;;;;;12.07;5.20;;;;;;;9.04;93.76;100539.75;5012459;28;20471;-70
2022/11/07 02:45:46;;;;;;;10.60;4.03;;;;;;;9.08;93.60;100546.97;5011114;28;20876;-68
2022/11/07 02:48:12;;;;;;;10.17;4.27;;;;;;;9.12;93.71;100541.78;5005538;28;20539;-69
2022/11/07 02:50:39;;;;;;;10.60;4.80;;;;;;;9.15;93.51;100552.00;4994810;28;20471;-68
2022/11/07 02:53:06;;;;;;;13.33;4.70;;;;;;;9.12;93.53;100543.66;5012904;28;20470;-67
2022/11/07 02:55:32;;;;;;;11.27;4.07;;;;;;;9.18;94.50;100546.03;5013025;28;20459;-69
2022/11/07 02:57:58;;;;;;;11.10;4.27;;;;;;;9.23;94.32;100534.34;4998574;28;20503;-68
2022/11/07 03:00:26;;;;;;;10.93;4.57;;;;;;;9.23;94.36;100542.44;5003012;28;20460;-69
2022/11/07 03:02:53;;;;;;;7.20;3.50;;;;;;;9.27;93.65;100530.75;5035363;23;20470;-71
2022/11/07 03:05:20;;;;;;;10.30;5.10;;;;;;;9.30;93.50;100543.69;5007408;28;20876;-71
2022/11/07 03:07:48;;;;;;;14.37;5.17;;;;;;;9.34;93.35;100546.59;5015119;28;20491;-71
2022/11/07 03:10:16;;;;;;;12.90;4.00;;;;;;;9.34;93.11;100555.53;5013413;28;20893;-70
2022/11/07 03:12:43;;;;;;;8.40;3.20;;;;;;;9.39;93.18;100545.72;5012968;28;20443;-70
2022/11/07 03:15:11;;;;;;;8.40;4.27;;;;;;;9.37;92.22;100559.53;4994226;28;20457;-71
2022/11/07 03:17:39;;;;;;;11.47;5.40;;;;;;;9.40;92.12;100558.16;4996316;28;20456;-70
2022/11/07 03:20:07;;;;;;;11.57;4.57;;;;;;;9.44;92.00;100556.47;4994053;28;20469;-71
2022/11/07 03:22:34;;;;;;;12.53;5.10;;;;;;;9.41;91.99;100568.66;4993638;28;20464;-70
2022/11/07 03:25:00;;;;;;;8.50;4.13;;;;;;;9.38;92.59;100561.13;4994492;28;20465;-72
2022/11/07 03:27:27;;;;;;;11.80;4.67;;;;;;;9.43;92.61;100573.75;4993701;28;20490;-71
2022/11/07 03:29:53;;;;;;;8.57;3.60;;;;;;;9.48;92.96;100568.28;4995253;28;20875;-71
2022/11/07 03:32:21;;;;;;;9.50;3.47;;;;;;;9.51;92.51;100578.50;4995183;28;20468;-71
2022/11/07 03:34:49;;;;;;;10.50;4.47;;;;;;;9.51;92.11;100583.91;4993998;28;20511;-71
2022/11/07 03:37:16;;;;;;;9.60;3.90;;;;;;;9.52;92.24;100574.72;4993267;28;20753;-71
2022/11/07 03:39:43;;;;;;;9.50;3.93;;;;;;;9.53;91.75;100581.72;4997301;28;20460;-72
2022/11/07 03:42:09;;;;;;;11.40;4.63;;;;;;;9.53;91.77;100582.53;4994263;28;20445;-71
2022/11/07 03:44:36;;;;;;;9.53;4.10;;;;;;;9.57;91.76;100585.47;4994106;28;20531;-70
2022/11/07 03:47:02;;;;;;;7.60;3.20;;;;;;;9.56;91.36;100589.25;4993510;28;20461;-72
2022/11/07 03:49:28;;;;;;;10.40;4.67;;;;;;;9.58;91.95;100587.06;4993563;28;20539;-70
2022/11/07 03:51:56;;;;;;;9.00;4.03;;;;;;;9.58;91.74;100587.06;4995107;28;20453;-71
2022/11/07 03:54:23;;;;;;;9.67;3.87;;;;;;;9.59;91.49;100577.84;4993576;28;20481;-71
2022/11/07 03:56:49;;;;;;;10.03;4.17;;;;;;;9.63;91.55;100583.47;4994027;28;20469;-71
2022/11/07 03:59:15;;;;;;;9.63;4.07;;;;;;;9.65;91.36;100583.97;4996775;28;20807;-71
2022/11/07 04:01:43;;;;;;;10.53;4.00;;;;;;;9.58;91.93;100582.44;4993445;28;20461;-71
2022/11/07 04:04:09;;;;;;;8.57;3.50;;;;;;;9.59;91.08;100585.94;4992571;28;20488;-70
2022/11/07 04:06:36;;;;;;;11.17;4.10;;;;;;;9.59;91.00;100584.06;4993647;28;20817;-70
2022/11/07 04:09:04;;;;;;;12.50;5.30;;;;;;;9.62;91.56;100582.66;4992967;28;20485;-71
2022/11/07 04:19:41;;;;;;;13.13;4.20;;;;;;;9.65;91.19;100597.50;4992387;28;20456;-71
2022/11/07 04:22:08;;;;;;;9.57;3.77;;;;;;;9.66;90.89;100597.22;4993018;28;20476;-73
2022/11/07 04:24:36;;;;;;;8.23;3.17;;;;;;;9.66;90.88;100593.72;4996285;28;20534;-73
2022/11/07 04:29:46;;;;;;;7.83;3.37;;;;;;;9.71;90.76;100605.25;4991989;28;20452;-74
2022/11/07 04:32:13;;;;;;;6.90;3.50;;;;;;;9.74;91.34;100601.97;4995079;28;20972;-72
2022/11/07 04:34:39;;;;;;;8.40;3.23;;;;;;;9.74;90.34;100614.66;4995548;28;20484;-73
2022/11/07 04:37:05;;;;;;;7.23;3.30;;;;;;;9.73;90.59;100615.75;4993337;28;20465;-72
2022/11/07 04:39:32;;;;;;;8.57;3.70;;;;;;;9.77;90.53;100614.06;4993162;28;20452;-72
2022/11/07 04:42:00;;;;;;;7.70;3.67;;;;;;;9.78;90.43;100613.78;4992873;28;20492;-73
2022/11/07 04:44:26;;;;;;;9.80;3.70;;;;;;;9.77;90.08;100620.28;4993466;28;20527;-71
2022/11/07 04:46:52;;;;;;;10.03;4.50;;;;;;;9.77;90.55;100620.28;4993169;28;20531;-71
2022/11/07 04:49:19;;;;;;;8.67;3.10;;;;;;;9.80;90.72;100616.19;4992585;28;20831;-72
2022/11/07 04:51:45;;;;;;;8.80;3.40;;;;;;;9.79;90.35;100625.41;4993450;28;20448;-73
2022/11/07 04:54:12;;;;;;;8.07;3.47;;;;;;;9.81;90.14;100624.00;4992988;28;20481;-72
2022/11/07 04:56:39;;;;;;;8.90;4.03;;;;;;;9.82;90.27;100617.50;4994828;28;20493;-72
2022/11/07 04:59:07;;;;;;;10.47;4.03;;;;;;;9.85;90.15;100632.34;4997943;28;20455;-71
2022/11/07 05:01:34;;;;;;;7.23;3.20;;;;;;;9.88;89.98;100630.97;4997449;28;20460;-71
2022/11/07 05:04:00;;;;;;;8.90;4.03;;;;;;;9.85;90.22;100633.16;4997149;28;20488;-70
2022/11/07 05:06:27;;;;;;;7.63;3.77;;;;;;;9.88;89.85;100634.47;4996692;28;20979;-71
2022/11/07 05:08:54;;;;;;;8.57;3.63;;;;;;;9.91;90.16;100643.88;4996265;28;20481;-71
2022/11/07 05:11:21;;;;;;;9.00;3.77;;;;;;;9.89;89.78;100629.84;4996504;28;20465;-70
2022/11/07 05:13:47;;;;;;;11.23;3.50;;;;;;;9.91;89.66;100633.84;4997287;28;20484;-71
2022/11/07 05:16:16;;;;;;;7.50;3.67;;;;;;;9.93;89.41;100631.69;4997597;28;20511;-71
2022/11/07 05:18:43;;;;;;;8.30;3.60;;;;;;;9.94;90.25;100632.47;4997042;28;20468;-71
2022/11/07 05:21:10;;;;;;;8.43;3.83;;;;;;;9.93;90.21;100631.69;4996333;28;20462;-71
2022/11/07 05:23:35;;;;;;;7.13;3.20;;;;;;;9.97;89.70;100627.28;4996270;28;20563;-71
2022/11/07 05:26:02;;;;;;;7.70;2.80;;;;;;;9.94;89.42;100632.47;4996503;28;20449;-71
2022/11/07 05:28:30;;;;;;;6.50;2.87;;;;;;;9.96;89.26;100628.38;4996711;28;20233;-72
2022/11/07 05:30:58;;;;;;;8.13;3.00;;;;;;;9.98;89.35;100638.91;4998021;28;20510;-71
2022/11/07 05:33:26;;;;;;;6.83;3.23;;;;;;;10.04;88.89;100640.41;4995171;28;20544;-71
2022/11/07 05:35:53;;;;;;;12.80;3.93;;;;;;;10.01;89.86;100649.94;4999136;28;20461;-70
2022/11/07 05:38:20;;;;;;;6.33;2.50;;;;;;;10.10;88.72;100652.78;4998707;28;20457;-66
2022/11/07 05:40:46;;;;;;;5.60;2.77;;;;;;;10.04;88.95;100649.34;4996686;28;20434;-71
2022/11/07 05:43:14;;;;;;;8.70;3.30;;;;;;;10.05;88.25;100655.59;4995779;28;20485;-70
2022/11/07 05:45:41;;;;;;;6.70;2.87;;;;;;;10.10;88.04;100655.50;4996841;28;20511;-70
2022/11/07 05:48:09;;;;;;;8.00;3.07;;;;;;;10.06;88.47;100657.97;4995632;28;20492;-70
2022/11/07 05:50:38;;;;;;;5.63;2.30;;;;;;;10.06;88.05;100657.97;4996116;28;20459;-70
2022/11/07 05:53:04;;;;;;;7.40;2.63;;;;;;;10.05;88.15;100663.69;4995775;28;20485;-70
2022/11/07 05:55:31;;;;;;;5.57;2.30;;;;;;;10.06;88.35;100659.88;4996343;28;20456;-70
2022/11/07 05:57:57;;;;;;;5.60;2.00;;;;;;;10.06;88.43;100652.56;4995707;28;20461;-69
2022/11/07 06:00:24;;;;;;;7.13;2.37;;;;;;;10.06;88.11;100662.59;4998707;28;20511;-69
2022/11/07 06:02:54;;;;;;;6.00;2.33;;;;;;;10.03;88.56;100668.59;4996497;28;20528;-69
2022/11/07 06:05:21;;;;;;;7.50;3.00;;;;;;;10.06;88.32;100670.72;4994978;28;20463;-69
2022/11/07 06:07:48;;;;;;;7.70;2.53;;;;;;;10.10;88.15;100663.63;4993654;28;20461;-69
2022/11/07 06:10:15;;;;;;;6.83;3.37;;;;;;;10.11;88.52;100667.91;4998327;28;20948;-69
2022/11/07 06:12:41;;;;;;;6.30;2.53;;;;;;;10.14;88.44;100669.22;4994379;28;20461;-69
2022/11/07 06:15:08;;;;;;;5.87;2.57;;;;;;;10.13;89.25;100665.72;4996077;28;20445;-69
2022/11/07 06:17:35;;;;;;;6.37;3.10;;;;;;;10.15;89.61;100666.22;4994471;28;20479;-69
2022/11/07 06:20:01;;;;;;;6.77;3.03;;;;;;;10.19;88.60;100672.66;4998126;28;20460;-69
2022/11/07 06:22:29;;;;;;;7.33;3.07;;;;;;;10.20;87.93;100674.25;4984374;28;20461;-69
2022/11/07 06:24:57;;;;;;;7.07;2.50;;;;;;;10.17;87.90;100679.47;4976072;28;20462;-69
2022/11/07 06:27:23;;;;;;;9.87;2.77;;;;;;;10.12;88.22;100677.63;4976058;28;20442;-69
2022/11/07 06:29:50;;;;;;;6.20;2.63;;;;;;;10.17;88.33;100685.66;4976080;28;20532;-70
2022/11/07 06:32:16;;;;;;;7.57;3.30;;;;;;;10.19;87.99;100688.91;4976121;28;20453;-69
2022/11/07 06:34:42;;;;;;;5.83;2.77;;;;;;;10.21;88.02;100683.19;4975969;28;20458;-71
2022/11/07 06:37:09;;;;;;;6.17;2.57;;;;;;;10.18;87.94;100686.47;4975995;28;20865;-70
2022/11/07 06:39:35;;;;;;;7.33;2.80;;;;;;;10.15;88.65;100682.47;4975918;28;20442;-71
2022/11/07 06:42:03;;;;;;;7.43;2.90;;;;;;;10.23;88.23;100700.75;4975859;28;20454;-71
2022/11/07 06:44:29;;;;;;;7.00;2.67;;;;;;;10.15;89.75;100695.22;4975832;28;20466;-71
2022/11/07 06:46:56;;;;;;;6.60;2.60;;;;;;;10.16;88.63;100688.69;4975859;28;20863;-71
2022/11/07 06:49:22;;;;;;;5.97;2.90;;;;;;;10.23;88.12;100689.91;4975773;28;20488;-71
2022/11/07 06:51:49;;;;;;;7.73;2.50;;;;;;;10.27;87.86;100696.38;4975787;28;20812;-71
2022/11/07 06:54:15;;;;;;;6.37;2.83;;;;;;;10.25;87.75;100693.16;4975713;28;20872;-70
2022/11/07 06:56:42;;;;;;;10.20;2.20;;;;;;;10.27;87.89;100693.69;4975734;28;20446;-70
2022/11/07 06:59:10;;;;;;;5.60;2.27;;;;;;;10.29;88.00;100690.66;4975677;28;20441;-70
2022/11/07 07:01:36;;;;;;;7.93;3.13;;;;;;;10.27;87.84;100690.97;4975276;28;20953;-70
2022/11/07 07:04:04;;;;;;;5.73;1.97;;;;;;;10.30;87.53;100695.78;4974997;28;20477;-71
2022/11/07 07:06:30;;;;;;;6.30;2.80;;;;;;;10.31;87.64;100707.41;4975470;28;20450;-70
2022/11/07 07:08:57;;;;;;;5.40;1.87;;;;;;;10.30;87.34;100698.47;4975061;28;20912;-70
2022/11/07 07:11:24;;;;;;;5.30;1.90;;;;;;;10.34;87.66;100712.22;4975314;28;20863;-71
2022/11/07 07:13:50;;;;;;;6.70;2.60;;;;;;;10.37;88.44;100711.66;4975164;28;20843;-70
2022/11/07 07:16:18;;;;;;;6.30;1.93;;;;;;;10.45;87.82;100710.97;4975134;28;20442;-71
2022/11/07 07:18:44;;;;;;;10.83;3.03;;;;;;;10.48;88.37;100713.06;4975087;28;21066;-71
2022/11/07 07:21:12;;;;;;;7.43;2.50;;;;;;;10.57;87.50;100713.19;4975258;28;20505;-71
2022/11/07 07:23:39;;;;;;;5.10;1.83;;;;;;;10.60;87.20;100712.59;4974234;28;20461;-71
2022/11/07 07:26:13;;;;;;;7.50;2.60;;;;;;;10.66;87.15;100708.69;4975209;28;20441;-71
2022/11/07 07:28:39;;;;;;;7.83;2.83;;;;;;;10.69;86.64;100718.94;4975110;28;20474;-71
2022/11/07 07:31:09;;;;;;;6.47;2.10;;;;;;;10.70;86.32;100717.84;4974710;28;20544;-71
2022/11/07 07:33:37;;;;;;;5.23;2.10;;;;;;;10.65;87.93;100717.94;4975015;28;20469;-71
2022/11/07 07:36:04;;;;;;;4.87;1.77;;;;;;;10.70;87.33;100714.31;4974750;28;20866;-71
2022/11/07 07:38:30;;;;;;;5.03;1.70;;;;;;;10.74;87.00;100721.56;4974680;28;20442;-70
2022/11/07 07:40:57;;;;;;;7.17;2.57;;;;;;;10.80;87.04;100714.97;4974995;28;20476;-71
2022/11/07 07:43:23;;;;;;;6.37;2.60;;;;;;;10.79;87.06;100721.47;4974797;28;20466;-71
2022/11/07 07:45:50;;;;;;;4.53;1.73;;;;;;;10.77;86.94;100718.25;4974951;28;20880;-71
2022/11/07 07:48:16;;;;;;;5.77;2.03;;;;;;;10.71;86.68;100711.31;4974909;28;20445;-70
2022/11/07 07:50:46;;;;;;;5.40;1.67;;;;;;;10.67;86.36;100715.75;4974688;28;20468;-68
2022/11/07 07:53:13;;;;;;;5.40;2.20;;;;;;;10.65;86.65;100723.34;4974930;28;20481;-67
2022/11/07 07:55:39;;;;;;;5.57;1.73;;;;;;;10.69;86.97;100715.44;4974634;28;20445;-67
2022/11/07 07:58:05;;;;;;;6.90;2.20;;;;;;;10.65;87.58;100726.06;4974634;28;20875;-70
2022/11/07 08:00:32;;;;;;;5.10;2.10;;;;;;;10.69;87.35;100724.38;4974664;28;20478;-70
2022/11/07 08:03:00;;;;;;;4.40;1.50;;;;;;;10.72;87.43;100718.34;4974392;28;20481;-70
2022/11/07 08:05:27;;;;;;;7.70;1.80;;;;;;;10.71;87.68;100719.44;4974503;28;20422;-70
2022/11/07 08:07:55;;;;;;;4.87;1.93;;;;;;;10.79;87.85;100726.09;4974643;28;20449;-71
2022/11/07 08:10:22;;;;;;;6.03;1.77;;;;;;;10.88;86.76;100731.63;4974612;28;20507;-70
2022/11/07 08:12:50;;;;;;;5.77;2.20;;;;;;;10.95;86.73;100726.63;4974163;28;20853;-70
2022/11/07 08:15:18;;;;;;;4.20;1.40;;;;;;;11.01;86.76;100738.97;4974377;28;20445;-69
2022/11/07 08:17:45;;;;;;;4.87;1.63;;;;;;;11.04;86.53;100741.88;4974208;28;20953;-70
2022/11/07 08:20:14;;;;;;;4.70;1.60;;;;;;;10.99;87.40;100735.75;4974480;28;20472;-68
2022/11/07 08:22:40;;;;;;;4.40;1.70;;;;;;;11.03;86.94;100734.84;4974434;28;20450;-69
2022/11/07 08:25:10;;;;;;;5.37;1.40;;;;;;;11.16;86.92;100737.88;4974504;28;20493;-69
2022/11/07 08:27:38;;;;;;;5.90;2.00;;;;;;;11.20;86.56;100739.69;4974597;28;20454;-69
2022/11/07 08:30:07;;;;;;;5.60;1.87;;;;;;;11.41;86.26;100739.25;4973986;28;21016;-69
2022/11/07 08:32:34;;;;;;;5.53;1.60;;;;;;;11.64;84.81;100738.22;4973994;28;20885;-69
2022/11/07 08:35:00;;;;;;;6.07;1.53;;;;;;;11.79;84.32;100729.75;4975669;28;20508;-69
2022/11/07 08:37:27;;;;;;;8.87;1.57;;;;;;;11.86;83.61;100735.63;4978247;28;20475;-69
2022/11/07 08:39:53;;;;;;;5.53;1.57;;;;;;;11.97;84.05;100732.66;4978145;28;20492;-69
2022/11/07 08:42:21;;;;;;;5.00;1.57;;;;;;;12.07;83.31;100737.84;4978007;28;20460;-69
2022/11/07 08:44:47;;;;;;;4.70;1.37;;;;;;;12.10;82.60;100726.38;4978078;28;20850;-69
2022/11/07 08:47:14;;;;;;;4.10;1.17;;;;;;;12.18;82.86;100741.16;4978050;28;20453;-69
2022/11/07 08:49:40;;;;;;;5.03;1.50;;;;;;;12.15;82.67;100739.84;4977924;28;20485;-69
2022/11/07 08:52:07;;;;;;;4.87;1.67;;;;;;;12.13;83.17;100747.50;4978024;28;20497;-69
2022/11/07 08:54:33;;;;;;;4.50;1.37;;;;;;;12.18;82.07;100741.16;4977845;28;20548;-69
2022/11/07 08:56:59;;;;;;;4.37;1.37;;;;;;;12.14;82.11;100732.81;4977790;28;20468;-69
2022/11/07 08:59:28;;;;;;;4.70;1.20;;;;;;;12.10;82.71;100745.38;4977473;28;20960;-69
2022/11/07 09:01:54;;;;;;;4.30;1.30;;;;;;;12.14;82.54;100742.88;4977846;28;20473;-69
2022/11/07 09:04:21;;;;;;;6.73;1.23;;;;;;;12.13;82.45;100750.22;4977196;28;20485;-69
2022/11/07 09:06:47;;;;;;;4.47;1.23;;;;;;;12.12;82.63;100738.53;4977663;28;20449;-69
2022/11/07 09:09:14;;;;;;;4.77;1.60;;;;;;;12.15;83.06;100737.13;4977307;28;21000;-69
2022/11/07 09:11:41;;;;;;;5.90;1.60;;;;;;;12.10;83.03;100748.09;4978092;28;20870;-69
2022/11/07 09:14:07;;;;;;;4.50;1.37;;;;;;;12.11;83.20;100741.56;4977561;28;20465;-69
2022/11/07 09:16:35;;;;;;;5.00;1.40;;;;;;;12.08;83.69;100744.88;4977203;28;20860;-71
2022/11/07 09:19:02;;;;;;;4.13;1.07;;;;;;;12.10;83.58;100740.75;4977386;28;20446;-69
2022/11/07 09:21:28;;;;;;;4.57;1.40;;;;;;;12.19;84.01;100751.69;4977343;28;20446;-69
2022/11/07 09:26:27;;;;;;;4.90;1.50;;;;;;;12.32;82.61;100758.19;5018236;23;20863;-68
2022/11/07 09:28:54;;;;;;;5.57;1.57;;;;;;;12.34;84.00;100745.09;4996600;28;20449;-68
2022/11/07 09:31:21;;;;;;;5.37;1.50;;;;;;;12.40;83.14;100753.94;4996545;28;20441;-70
2022/11/07 09:33:49;;;;;;;4.33;1.30;;;;;;;12.42;83.35;100748.97;4996449;28;20437;-69
2022/11/07 09:36:15;;;;;;;4.67;1.67;;;;;;;12.44;82.65;100755.72;4996426;28;20469;-70
2022/11/07 09:38:42;;;;;;;4.63;1.50;;;;;;;12.50;81.93;100748.25;4994006;28;20448;-69
2022/11/07 09:41:21;;;;;;;6.87;1.57;;;;;;;12.47;81.92;100748.84;4988347;28;20462;-69
2022/11/07 09:44:06;;;;;;;4.90;1.57;;;;;;;12.50;82.31;100756.41;4990182;28;20456;-69
2022/11/07 09:46:48;;;;;;;3.80;0.90;;;;;;;12.55;82.50;100761.69;4990268;28;20517;-69
2022/11/07 09:49:20;;;;;;;4.47;1.30;;;;;;;12.54;82.58;100752.75;4976785;28;20474;-69
2022/11/07 09:51:52;;;;;;;5.43;1.50;;;;;;;12.58;82.41;100753.72;4995044;28;20461;-69
2022/11/07 09:54:22;;;;;;;4.67;1.23;;;;;;;12.64;82.92;100762.56;4995391;28;20465;-69
2022/11/07 09:56:48;;;;;;;8.90;1.87;;;;;;;12.75;82.06;100758.47;4994487;28;21456;-69
2022/11/07 09:59:20;;;;;;;4.47;1.37;;;;;;;12.80;81.58;100760.25;4993774;28;20468;-69
2022/11/07 10:01:47;;;;;;;5.60;1.73;;;;;;;12.85;82.13;100754.69;4990634;28;20480;-68
2022/11/07 10:04:17;;;;;;;5.80;1.30;;;;;;;12.88;81.48;100760.31;4992996;28;20472;-69
2022/11/07 10:06:48;;;;;;;4.53;1.27;;;;;;;13.00;81.01;100756.97;4976578;28;20430;-70
2022/11/07 10:09:20;;;;;;;6.53;1.77;;;;;;;13.07;80.50;100756.56;4984173;28;20524;-69
2022/11/07 10:12:00;;;;;;;5.00;1.20;;;;;;;13.11;80.91;100757.53;4995897;28;20429;-68
2022/11/07 10:14:40;;;;;;;4.00;0.90;;;;;;;13.18;81.00;100757.84;4995466;28;20480;-69
2022/11/07 10:17:16;;;;;;;12.77;1.40;;;;;;;13.17;80.52;100761.72;4995780;28;20456;-69
2022/11/07 10:20:03;;;;;;;4.37;1.20;;;;;;;13.29;79.94;100759.22;4995758;28;20429;-69
2022/11/07 10:22:41;;;;;;;4.20;0.97;;;;;;;13.27;81.00;100756.00;4995376;28;20555;-69
2022/11/07 10:25:19;;;;;;;4.97;1.57;;;;;;;13.41;80.04;100765.97;4995362;28;20475;-69
2022/11/07 10:27:51;;;;;;;3.83;1.10;;;;;;;13.53;79.86;100766.16;4995636;28;20457;-69
2022/11/07 10:30:20;;;;;;;5.33;1.30;;;;;;;13.63;78.56;100769.41;4995357;28;20495;-70
2022/11/07 10:32:53;;;;;;;5.47;1.20;;;;;;;13.73;78.44;100768.31;4995500;28;20456;-69
2022/11/07 10:35:28;;;;;;;6.50;1.33;;;;;;;13.78;78.73;100770.88;4995343;28;20472;-69
2022/11/07 10:37:55;;;;;;;4.90;1.23;;;;;;;13.96;77.93;100776.34;4995092;28;20939;-69
2022/11/07 10:40:24;;;;;;;5.03;1.50;;;;;;;14.04;76.73;100772.84;4995296;28;20441;-69
2022/11/07 10:42:51;;;;;;;4.83;1.20;;;;;;;13.99;77.01;100771.06;4995128;28;20445;-69
2022/11/07 10:45:18;;;;;;;3.63;1.03;;;;;;;14.11;77.36;100764.97;4995115;28;20449;-69
2022/11/07 10:47:56;;;;;;;6.53;1.40;;;;;;;14.29;76.75;100758.41;4995130;28;20491;-69
2022/11/07 10:50:24;;;;;;;3.93;1.07;;;;;;;14.38;76.65;100764.63;4995080;28;20527;-69
2022/11/07 10:52:55;;;;;;;4.80;1.57;;;;;;;14.57;75.95;100766.28;4994797;28;20444;-69
2022/11/07 10:55:22;;;;;;;4.27;1.00;;;;;;;14.79;74.87;100766.06;4994550;28;20819;-69
2022/11/07 10:57:53;;;;;;;4.07;0.90;;;;;;;15.06;74.08;100764.06;4994724;28;20456;-69
2022/11/07 11:00:22;;;;;;;4.10;1.30;;;;;;;15.31;72.24;100765.06;4994589;28;20425;-69
2022/11/07 11:02:50;;;;;;;4.60;1.40;;;;;;;15.78;70.16;100765.00;4994561;28;20536;-69
2022/11/07 11:05:27;;;;;;;5.03;1.50;;;;;;;16.35;67.92;100769.88;4994661;28;20544;-69
2022/11/07 11:07:56;;;;;;;4.93;1.50;;;;;;;16.89;65.24;100772.56;4994836;28;20417;-69
2022/11/07 11:10:24;;;;;;;5.60;1.00;;;;;;;17.68;62.72;100761.44;4994639;28;20516;-69
2022/11/07 11:12:51;;;;;;;4.67;0.93;;;;;;;17.83;60.49;100764.28;4994710;28;20456;-70
2022/11/07 11:15:19;;;;;;;4.80;1.43;;;;;;;17.85;59.48;100766.69;4994537;28;20479;-69
2022/11/07 11:17:46;;;;;;;3.70;1.00;;;;;;;17.68;60.58;100769.66;4994611;28;20452;-69
2022/11/07 11:20:35;;;;;;;3.87;0.93;;;;;;;17.53;60.82;100762.91;4994480;28;20445;-67
2022/11/07 11:23:03;;;;;;;4.83;1.00;;;;;;;17.83;60.40;100767.00;4994504;28;20429;-70
2022/11/07 11:25:30;;;;;;;4.10;0.90;;;;;;;17.90;59.37;100761.75;4994212;28;20941;-69
2022/11/07 11:28:02;;;;;;;6.23;1.10;;;;;;;17.68;59.99;100748.53;4994589;28;20448;-70
2022/11/07 11:30:29;;;;;;;4.33;1.30;;;;;;;17.40;61.61;100757.47;4994376;28;20837;-71
2022/11/07 11:33:03;;;;;;;5.03;1.37;;;;;;;17.55;61.85;100760.63;4994086;28;21013;-71
2022/11/07 11:35:37;;;;;;;3.53;0.80;;;;;;;17.49;60.32;100759.28;4994200;28;20465;-70
2022/11/07 11:38:11;;;;;;;4.10;1.20;;;;;;;17.36;61.05;100769.44;4994362;28;20436;-69
2022/11/07 11:40:41;;;;;;;3.50;0.80;;;;;;;17.29;61.99;100761.78;4994357;28;20972;-69
2022/11/07 11:43:19;;;;;;;3.50;0.70;;;;;;;17.63;59.86;100767.94;4994301;28;20444;-70
2022/11/07 11:46:00;;;;;;;3.93;0.93;;;;;;;18.00;59.19;100765.16;4994031;28;20487;-69
2022/11/07 11:48:32;;;;;;;4.17;1.00;;;;;;;17.93;60.29;100765.75;4993807;28;20909;-69
2022/11/07 11:51:04;;;;;;;3.87;1.10;;;;;;;18.58;59.71;100760.94;4994067;28;20469;-69